Madera, Pennsylvania
Current Conditions -  °F | °C
As of 5:54 AM on Wednesday 26 Nov 2014 (Local Time) from KFIG Reporting Station
Broken Clouds Broken Clouds  
Wind Chill: 23°   Ceiling: 12000
Heat Index: 29°   Visibility: 10mi
Dew Point: 25°   Wind: 6mph
Humidity: 85%   Direction: 30°NNE
Pressure: 30.08"   Gusts: NA
Location:  40.83°N, 78.43°W
Report Text: KFIG 261054Z AUTO 03005KT 10SM BKN120 M02/M04 A3008 RMK AO2 PRESFR SLP199 T10171039
Loading
Personal Weather Stations






























Interactive Weather Map New forecast layout! Learn more

10-Day Weather Forecast

Advertisements
Track Severe Weather on mobile